createdAt,value
2022-08-23T00:01:29.176Z,93.90
2022-08-23T00:06:23.865Z,94.13
2022-08-23T00:11:29.767Z,94.06
2022-08-23T00:16:22.294Z,94.29
2022-08-23T00:21:13.973Z,93.77
2022-08-23T00:26:06.236Z,93.37
2022-08-23T00:30:59.167Z,93.34
2022-08-23T00:35:50.798Z,93.99
2022-08-23T00:40:53.427Z,94.63
2022-08-23T00:46:11.632Z,94.88
2022-08-23T00:51:23.458Z,95.16
2022-08-23T00:56:17.991Z,94.64
2022-08-23T01:01:09.966Z,95.06
2022-08-23T01:06:13.714Z,94.91
2022-08-23T01:11:22.352Z,95.06
2022-08-23T01:16:19.014Z,95.50
2022-08-23T01:21:16.899Z,95.18
2022-08-23T01:26:10.435Z,95.33
2022-08-23T01:31:03.116Z,94.96
2022-08-23T01:35:59.090Z,94.58
2022-08-23T01:40:52.914Z,94.98
2022-08-23T01:45:44.706Z,94.61
2022-08-23T01:55:28.275Z,94.95
2022-08-23T02:00:23.138Z,95.21
2022-08-23T02:05:17.323Z,95.44
2022-08-23T02:10:11.608Z,94.83
2022-08-23T02:15:05.161Z,94.66
2022-08-23T02:19:57.415Z,94.92
2022-08-23T02:24:49.282Z,94.82
2022-08-23T02:29:42.045Z,94.55
2022-08-23T02:34:36.503Z,94.35
2022-08-23T02:39:28.790Z,94.51
2022-08-23T02:44:20.634Z,94.46
2022-08-23T02:49:12.600Z,94.40
2022-08-23T02:54:05.515Z,94.71
2022-08-23T02:58:57.442Z,95.16
2022-08-23T03:03:49.194Z,95.52
2022-08-23T03:08:41.501Z,95.98
2022-08-23T03:13:33.736Z,96.05
2022-08-23T03:18:25.318Z,96.58
2022-08-23T03:23:17.127Z,97.08
2022-08-23T03:28:08.906Z,97.96
2022-08-23T03:33:01.617Z,98.34
2022-08-23T03:37:55.352Z,98.12
2022-08-23T03:42:47.090Z,98.67
2022-08-23T03:47:39.509Z,98.75
2022-08-23T03:52:31.430Z,99.56
2022-08-23T03:57:23.101Z,99.69
2022-08-23T04:02:15.911Z,100.00
2022-08-23T04:07:07.961Z,100.00
2022-08-23T04:11:59.672Z,100.00
2022-08-23T04:16:51.356Z,100.00
2022-08-23T04:21:48.468Z,100.00
2022-08-23T04:26:41.434Z,100.00
2022-08-23T04:31:35.944Z,100.00
2022-08-23T04:36:34.793Z,100.00
2022-08-23T04:41:47.008Z,100.00
2022-08-23T04:46:39.911Z,100.00
2022-08-23T04:51:31.637Z,100.00
2022-08-23T04:56:26.289Z,100.00
2022-08-23T05:01:18.037Z,100.00
2022-08-23T05:06:09.736Z,100.00
2022-08-23T05:11:03.614Z,100.00
2022-08-23T05:15:55.322Z,100.00
2022-08-23T05:20:48.740Z,100.00
2022-08-23T05:25:53.231Z,100.00
2022-08-23T05:30:56.356Z,100.00
2022-08-23T05:35:48.740Z,100.00
2022-08-23T05:40:40.457Z,100.00
2022-08-23T05:45:32.032Z,100.00
2022-08-23T05:50:24.358Z,100.00
2022-08-23T05:55:16.082Z,100.00
2022-08-23T06:00:13.300Z,100.00
2022-08-23T06:05:05.602Z,100.00
2022-08-23T06:09:57.917Z,100.00
2022-08-23T06:14:49.596Z,100.00
2022-08-23T06:19:41.256Z,100.00
2022-08-23T06:24:33.395Z,100.00
2022-08-23T06:29:25.065Z,100.00
2022-08-23T06:34:19.150Z,100.00
2022-08-23T06:39:11.523Z,100.00
2022-08-23T06:44:04.103Z,100.00
2022-08-23T06:48:57.701Z,100.00
2022-08-23T06:53:50.518Z,100.00
2022-08-23T06:58:42.183Z,100.00
2022-08-23T07:03:36.602Z,100.00
2022-08-23T07:08:28.585Z,99.86
2022-08-23T07:13:20.179Z,100.00
2022-08-23T07:18:13.677Z,100.00
2022-08-23T07:23:05.460Z,100.00
2022-08-23T07:27:57.266Z,99.68
2022-08-23T07:32:49.455Z,99.38
2022-08-23T07:37:41.379Z,100.00
2022-08-23T07:42:33.685Z,99.29
2022-08-23T07:47:25.424Z,98.57
2022-08-23T07:52:17.180Z,97.28
2022-08-23T07:57:09.303Z,94.00
2022-08-23T08:02:01.014Z,92.51
2022-08-23T08:07:16.952Z,90.66
2022-08-23T08:12:04.894Z,90.43
2022-08-23T08:16:58.818Z,87.11
2022-08-23T08:21:51.328Z,81.92
2022-08-23T08:26:44.153Z,74.32
2022-08-23T08:31:38.184Z,71.92
2022-08-23T08:36:37.288Z,71.37
2022-08-23T08:42:04.320Z,70.45
2022-08-23T08:46:59.899Z,67.00
2022-08-23T08:52:16.634Z,67.72
2022-08-23T08:57:11.520Z,67.30
2022-08-23T09:02:07.707Z,68.17
2022-08-23T09:07:31.447Z,68.99
2022-08-23T09:12:46.758Z,63.30
2022-08-23T09:18:10.651Z,63.02
2022-08-23T09:23:17.198Z,61.59
2022-08-23T09:28:08.891Z,62.50
2022-08-23T09:33:16.531Z,62.22
2022-08-23T09:38:14.126Z,62.31
2022-08-23T09:43:13.232Z,62.57
2022-08-23T09:48:06.750Z,62.06
2022-08-23T09:53:04.351Z,62.67
2022-08-23T09:57:56.265Z,61.66
2022-08-23T10:02:48.204Z,63.03
2022-08-23T10:07:43.247Z,62.74
2022-08-23T10:12:35.152Z,62.19
2022-08-23T10:17:43.936Z,62.20
2022-08-23T10:23:06.519Z,64.16
2022-08-23T10:28:23.007Z,64.79
2022-08-23T10:33:29.823Z,63.46
2022-08-23T10:38:46.305Z,64.69
2022-08-23T10:43:56.919Z,68.14
2022-08-23T10:48:54.881Z,69.98
2022-08-23T10:53:56.839Z,70.79
2022-08-23T10:58:56.510Z,70.94
2022-08-23T11:04:27.074Z,71.13
2022-08-23T11:09:21.549Z,70.48
2022-08-23T11:14:45.560Z,70.99
2022-08-23T11:19:54.019Z,72.07
2022-08-23T11:24:56.189Z,73.09
2022-08-23T11:29:47.956Z,73.29
2022-08-23T11:35:00.540Z,73.29
2022-08-23T11:39:58.194Z,72.34
2022-08-23T11:44:50.538Z,71.81
2022-08-23T11:50:12.052Z,71.40
2022-08-23T11:55:42.362Z,72.70
2022-08-23T12:00:55.435Z,72.55
2022-08-23T12:05:52.894Z,70.19
2022-08-23T12:10:45.306Z,70.18
2022-08-23T12:16:16.637Z,68.72
2022-08-23T12:21:30.053Z,66.58
2022-08-23T12:26:59.160Z,65.23
2022-08-23T12:32:02.866Z,63.92
2022-08-23T12:37:15.155Z,61.41
2022-08-23T12:42:16.225Z,63.18
2022-08-23T12:47:15.783Z,61.84
2022-08-23T12:52:12.334Z,59.91
2022-08-23T12:57:11.646Z,60.25
2022-08-23T13:02:08.670Z,59.58
2022-08-23T13:07:05.885Z,59.16
2022-08-23T13:11:59.054Z,58.52
2022-08-23T13:16:51.446Z,59.64
2022-08-23T13:21:43.988Z,58.42
2022-08-23T13:26:39.123Z,58.80
2022-08-23T13:32:03.213Z,57.80
2022-08-23T13:36:58.927Z,58.22
2022-08-23T13:41:50.821Z,58.26
2022-08-23T13:46:47.611Z,60.17
2022-08-23T13:51:40.498Z,59.36
2022-08-23T13:56:37.310Z,58.12
2022-08-23T14:01:29.956Z,59.52
2022-08-23T14:06:21.716Z,60.04
2022-08-23T14:11:15.989Z,59.41
2022-08-23T14:21:21.054Z,59.10
2022-08-23T14:26:17.426Z,58.07
2022-08-23T14:31:09.148Z,57.72
2022-08-23T14:36:00.918Z,57.86
2022-08-23T14:40:59.049Z,56.92
2022-08-23T14:45:51.280Z,57.11
2022-08-23T14:50:43.145Z,56.97
2022-08-23T14:55:34.889Z,57.07
2022-08-23T15:00:27.032Z,56.44
2022-08-23T15:05:19.382Z,55.55
2022-08-23T15:10:49.754Z,55.57
2022-08-23T15:15:25.577Z,54.98
2022-08-23T15:20:17.314Z,54.84
2022-08-23T15:25:09.148Z,55.11
2022-08-23T15:30:00.817Z,55.78
2022-08-23T15:34:52.578Z,56.22
2022-08-23T15:39:44.415Z,56.27
2022-08-23T15:44:36.077Z,57.87
2022-08-23T15:49:29.288Z,57.95
2022-08-23T15:54:23.677Z,58.31
2022-08-23T15:59:19.193Z,58.38
2022-08-23T16:04:11.364Z,59.92
2022-08-23T16:09:05.256Z,59.67
2022-08-23T16:13:56.989Z,59.26
2022-08-23T16:18:51.668Z,59.35
2022-08-23T16:23:44.450Z,58.83
2022-08-23T16:28:36.074Z,59.61
2022-08-23T16:33:27.901Z,57.62
2022-08-23T16:38:19.654Z,57.39
2022-08-23T16:43:11.337Z,58.10
2022-08-23T16:48:05.256Z,58.18
2022-08-23T16:52:56.970Z,58.05
2022-08-23T16:57:48.590Z,58.67
2022-08-23T17:02:41.127Z,58.68
2022-08-23T17:07:32.939Z,58.69
2022-08-23T17:12:26.026Z,57.54
2022-08-23T17:17:18.329Z,57.18
2022-08-23T17:22:10.715Z,58.17
2022-08-23T17:27:02.378Z,58.66
2022-08-23T17:31:54.286Z,59.19
2022-08-23T17:36:52.323Z,59.61
2022-08-23T17:41:45.497Z,60.00
2022-08-23T17:46:40.471Z,60.95
2022-08-23T17:51:33.143Z,61.09
2022-08-23T17:56:24.969Z,61.71
2022-08-23T18:01:18.830Z,61.26
2022-08-23T18:06:16.723Z,61.47
2022-08-23T18:11:08.851Z,61.86
2022-08-23T18:16:01.292Z,62.19
2022-08-23T18:20:53.088Z,62.32
2022-08-23T18:25:45.829Z,63.23
2022-08-23T18:30:50.121Z,63.38
2022-08-23T18:35:43.533Z,64.00
2022-08-23T18:40:45.392Z,63.99
2022-08-23T18:45:38.563Z,64.70
2022-08-23T18:50:30.210Z,64.83
2022-08-23T18:55:21.898Z,65.09
2022-08-23T19:00:13.837Z,65.45
2022-08-23T19:05:06.020Z,65.47
2022-08-23T19:09:57.811Z,66.10
2022-08-23T19:14:49.626Z,66.48
2022-08-23T19:19:41.590Z,66.79
2022-08-23T19:24:33.927Z,67.00
2022-08-23T19:29:28.437Z,67.35
2022-08-23T19:34:22.258Z,67.58
2022-08-23T19:39:14.489Z,68.06
2022-08-23T19:44:07.990Z,68.13
2022-08-23T19:49:00.219Z,69.01
2022-08-23T19:54:04.733Z,68.82
2022-08-23T19:59:03.214Z,69.50
2022-08-23T20:03:55.121Z,69.70
2022-08-23T20:08:46.926Z,69.14
2022-08-23T20:13:38.586Z,69.74
2022-08-23T20:18:30.251Z,70.05
2022-08-23T20:23:44.919Z,70.96
2022-08-23T20:28:36.941Z,71.27
2022-08-23T20:33:28.582Z,71.00
2022-08-23T20:38:33.216Z,71.77
2022-08-23T20:43:25.726Z,71.88
2022-08-23T20:48:18.819Z,72.32
2022-08-23T20:53:12.841Z,72.68
2022-08-23T20:58:04.954Z,72.96
2022-08-23T21:02:56.938Z,73.23
2022-08-23T21:07:48.931Z,74.37
2022-08-23T21:12:41.249Z,75.34
2022-08-23T21:17:32.935Z,75.98
2022-08-23T21:22:32.222Z,76.18
2022-08-23T21:27:24.038Z,76.13
2022-08-23T21:32:15.847Z,75.95
2022-08-23T21:37:07.558Z,76.33
2022-08-23T21:41:59.155Z,76.70
2022-08-23T21:46:50.818Z,76.83
2022-08-23T21:51:43.703Z,77.07
2022-08-23T21:56:37.086Z,77.06
2022-08-23T22:01:31.057Z,77.59
2022-08-23T22:06:23.126Z,77.56
2022-08-23T22:11:15.798Z,77.92
2022-08-23T22:16:07.950Z,77.98
2022-08-23T22:20:59.994Z,77.95
2022-08-23T22:25:51.779Z,78.11
2022-08-23T22:30:43.757Z,78.62
2022-08-23T22:35:36.384Z,78.96
2022-08-23T22:40:28.275Z,78.64
2022-08-23T22:45:20.006Z,78.46
2022-08-23T22:50:12.524Z,78.33
2022-08-23T22:55:05.269Z,78.77
2022-08-23T22:59:57.853Z,78.67
2022-08-23T23:04:50.309Z,79.03
2022-08-23T23:09:41.945Z,79.22
2022-08-23T23:14:33.640Z,79.73
2022-08-23T23:19:45.798Z,79.94
2022-08-23T23:24:40.222Z,79.70
2022-08-23T23:29:32.513Z,80.04
2022-08-23T23:34:24.291Z,79.90
2022-08-23T23:39:16.438Z,80.32
2022-08-23T23:44:08.863Z,79.89
2022-08-23T23:49:00.778Z,79.08
2022-08-23T23:53:53.726Z,79.66
2022-08-23T23:58:48.365Z,79.61
